Time;durP1;ratioP1;P1;durP2;ratioP2;P2;SDS_P1;SDS_P2;PMS_P1;PMS_P2;Temp;Humidity;BMP_temperature;BMP_pressure;BME280_temperature;BME280_humidity;BME280_pressure;Samples;Min_cycle;Max_cycle;Signal;HPM_P1;HPM_P2
2024/04/06 00:02:23;;;;;;;1.85;1.23;;;16.60;99.90;;;;;;4938931;28;20043;-69
2024/04/06 00:04:49;;;;;;;2.22;1.08;;;16.60;99.90;;;;;;4952381;28;20479;-69
2024/04/06 00:07:15;;;;;;;4.93;1.58;;;16.50;99.90;;;;;;4950971;28;20035;-70
2024/04/06 00:09:40;;;;;;;2.30;1.08;;;16.40;99.90;;;;;;4953481;28;20472;-70
2024/04/06 00:12:06;;;;;;;8.50;1.83;;;16.40;99.90;;;;;;4968542;28;20041;-70
2024/04/06 00:14:32;;;;;;;7.82;1.00;;;16.40;99.90;;;;;;4969251;28;20025;-70
2024/04/06 00:16:58;;;;;;;3.55;2.30;;;16.40;99.90;;;;;;4966960;28;20042;-70
2024/04/06 00:19:24;;;;;;;2.92;0.98;;;16.50;99.90;;;;;;4969593;28;20031;-70
2024/04/06 00:21:49;;;;;;;3.72;1.23;;;16.50;99.90;;;;;;4968520;28;20039;-70
2024/04/06 00:24:16;;;;;;;2.50;0.93;;;16.40;99.90;;;;;;4953356;28;20031;-70
2024/04/06 00:26:44;;;;;;;1.27;0.63;;;16.40;99.90;;;;;;4967092;28;20480;-70
2024/04/06 00:29:10;;;;;;;2.35;1.33;;;16.40;99.90;;;;;;4951131;28;20038;-70
2024/04/06 00:31:35;;;;;;;1.42;0.93;;;16.40;99.90;;;;;;4968688;28;20023;-70
2024/04/06 00:34:02;;;;;;;1.77;1.15;;;16.40;99.90;;;;;;4970767;28;20394;-70
2024/04/06 00:36:31;;;;;;;2.58;1.48;;;16.50;99.90;;;;;;4953802;28;20034;-69
2024/04/06 00:38:58;;;;;;;4.50;1.13;;;16.50;99.90;;;;;;4969417;28;20035;-70
2024/04/06 00:41:24;;;;;;;3.10;1.13;;;16.50;99.90;;;;;;4966434;28;20058;-70
2024/04/06 00:43:50;;;;;;;2.90;1.10;;;16.40;99.90;;;;;;4969808;28;20035;-70
2024/04/06 00:46:16;;;;;;;3.60;1.20;;;16.30;99.90;;;;;;4953428;28;20101;-70
2024/04/06 00:48:45;;;;;;;2.38;0.68;;;16.20;99.90;;;;;;4970776;28;20086;-70
2024/04/06 00:51:11;;;;;;;1.80;0.82;;;16.20;99.90;;;;;;4954794;28;20459;-70
2024/04/06 00:53:37;;;;;;;2.83;0.93;;;16.00;99.90;;;;;;4953099;28;20115;-70
2024/04/06 00:56:03;;;;;;;2.08;0.85;;;16.00;99.90;;;;;;4964955;28;20054;-70
2024/04/06 00:58:29;;;;;;;2.35;1.15;;;16.00;99.90;;;;;;4951311;28;20458;-70
2024/04/06 01:00:55;;;;;;;1.67;0.88;;;16.00;99.90;;;;;;4962493;28;20361;-70
2024/04/06 01:03:21;;;;;;;1.75;0.95;;;16.00;99.90;;;;;;4954295;28;20117;-70
2024/04/06 01:05:47;;;;;;;1.38;0.77;;;16.00;99.90;;;;;;4960647;28;20114;-70
2024/04/06 01:08:12;;;;;;;3.63;1.17;;;16.00;99.90;;;;;;4952922;28;20107;-70
2024/04/06 01:10:39;;;;;;;2.75;0.98;;;16.00;99.90;;;;;;4971198;28;20123;-70
2024/04/06 01:13:04;;;;;;;2.58;1.08;;;16.00;99.90;;;;;;4957724;28;20102;-70
2024/04/06 01:15:34;;;;;;;3.47;1.10;;;15.90;99.90;;;;;;4970115;28;20559;-69
2024/04/06 01:18:03;;;;;;;1.23;0.63;;;15.90;99.90;;;;;;4973317;28;20027;-70
2024/04/06 01:20:32;;;;;;;2.13;1.17;;;15.90;99.90;;;;;;4971087;28;20085;-70
2024/04/06 01:22:59;;;;;;;1.85;0.93;;;15.70;99.90;;;;;;4973590;28;20467;-70
2024/04/06 01:25:25;;;;;;;1.98;1.27;;;15.60;99.90;;;;;;4950827;28;20507;-70
2024/04/06 01:27:51;;;;;;;13.80;2.08;;;15.60;99.90;;;;;;4957144;28;20023;-71
2024/04/06 01:30:17;;;;;;;2.45;1.38;;;15.40;99.90;;;;;;4956089;28;20114;-71
2024/04/06 01:32:51;;;;;;;1.88;1.05;;;15.40;99.90;;;;;;4972036;28;20039;-71
2024/04/06 01:35:17;;;;;;;5.00;1.00;;;15.40;99.90;;;;;;4968034;28;20467;-71
2024/04/06 01:37:44;;;;;;;1.50;0.90;;;15.40;99.90;;;;;;4970569;28;20062;-71
2024/04/06 01:40:11;;;;;;;2.22;1.40;;;15.30;99.90;;;;;;4970928;28;20050;-71
2024/04/06 01:42:37;;;;;;;3.15;1.00;;;15.20;99.90;;;;;;4973240;28;20039;-71
2024/04/06 01:45:05;;;;;;;4.82;0.88;;;15.20;99.90;;;;;;4956332;28;20065;-71
2024/04/06 01:47:31;;;;;;;1.50;0.88;;;15.20;99.90;;;;;;4970477;28;20027;-71
2024/04/06 01:50:05;;;;;;;4.05;1.00;;;15.20;99.90;;;;;;4955172;28;20057;-71
2024/04/06 01:52:31;;;;;;;4.38;1.05;;;15.40;99.90;;;;;;4954089;28;20026;-69
2024/04/06 01:55:03;;;;;;;2.92;0.95;;;15.40;99.90;;;;;;4970690;28;20034;-71
2024/04/06 01:57:29;;;;;;;0.65;0.50;;;15.50;99.90;;;;;;4956944;28;20387;-71
2024/04/06 01:59:55;;;;;;;5.25;1.15;;;15.60;99.90;;;;;;4956285;28;20042;-69
2024/04/06 02:02:21;;;;;;;2.35;0.85;;;15.60;99.90;;;;;;4974332;28;20018;-69
2024/04/06 02:04:46;;;;;;;1.17;0.60;;;15.50;99.90;;;;;;4972036;28;20038;-69
2024/04/06 02:07:16;;;;;;;2.28;0.75;;;15.50;99.90;;;;;;4972714;28;20110;-70
2024/04/06 02:09:41;;;;;;;2.08;0.90;;;15.70;99.90;;;;;;4969638;28;20037;-70
2024/04/06 02:12:08;;;;;;;1.73;0.80;;;15.90;99.90;;;;;;4953504;28;20026;-70
2024/04/06 02:14:34;;;;;;;1.05;0.68;;;15.90;99.90;;;;;;4971391;28;20054;-70
2024/04/06 02:17:03;;;;;;;1.45;0.80;;;16.10;99.90;;;;;;4952507;28;20500;-70
2024/04/06 02:19:29;;;;;;;1.58;1.00;;;16.10;99.90;;;;;;4970588;28;20053;-70
2024/04/06 02:21:55;;;;;;;4.57;0.82;;;16.30;99.90;;;;;;4963995;28;20031;-70
2024/04/06 02:24:21;;;;;;;3.38;1.33;;;16.40;99.90;;;;;;4966836;28;20029;-70
2024/04/06 02:26:46;;;;;;;1.42;0.68;;;16.60;99.90;;;;;;4968483;28;20411;-70
2024/04/06 02:29:12;;;;;;;3.53;0.80;;;16.70;99.90;;;;;;4971702;28;20481;-71
2024/04/06 02:31:38;;;;;;;2.30;0.70;;;16.70;99.90;;;;;;4971363;28;20023;-71
2024/04/06 02:34:04;;;;;;;1.80;0.85;;;16.80;99.90;;;;;;4965709;28;20026;-70
2024/04/06 02:36:30;;;;;;;2.40;0.80;;;16.80;99.90;;;;;;4969942;28;20035;-70
2024/04/06 02:38:55;;;;;;;3.22;0.60;;;16.90;99.90;;;;;;4972959;28;20522;-70
2024/04/06 02:41:21;;;;;;;3.90;1.10;;;16.90;99.90;;;;;;4968987;28;20033;-70
2024/04/06 02:43:49;;;;;;;2.65;1.00;;;16.90;99.90;;;;;;4972111;28;20039;-70
2024/04/06 02:46:16;;;;;;;1.55;0.80;;;16.90;99.90;;;;;;4966453;28;20034;-70
2024/04/06 02:48:42;;;;;;;2.15;1.05;;;16.90;99.90;;;;;;4970908;28;20502;-70
2024/04/06 02:51:08;;;;;;;2.00;0.95;;;16.80;99.90;;;;;;4966506;28;20030;-70
2024/04/06 02:53:33;;;;;;;2.22;1.33;;;16.80;99.90;;;;;;4972141;28;20027;-70
2024/04/06 02:55:59;;;;;;;1.67;0.73;;;16.80;99.90;;;;;;4965474;28;20027;-70
2024/04/06 02:58:25;;;;;;;0.75;0.50;;;16.80;99.90;;;;;;4972368;28;20110;-70
2024/04/06 03:00:51;;;;;;;2.75;0.70;;;16.60;99.90;;;;;;4969988;28;20093;-70
2024/04/06 03:03:17;;;;;;;2.00;0.68;;;16.60;99.90;;;;;;4972292;28;20062;-70
2024/04/06 03:05:42;;;;;;;0.65;0.50;;;16.60;99.90;;;;;;4967049;28;20078;-71
2024/04/06 03:08:08;;;;;;;3.63;0.90;;;16.80;99.90;;;;;;4972535;28;20109;-70
2024/04/06 03:10:34;;;;;;;1.33;0.80;;;16.90;99.90;;;;;;4966964;28;20026;-70
2024/04/06 03:12:59;;;;;;;3.88;1.00;;;16.90;99.90;;;;;;4964398;28;20105;-70
2024/04/06 03:15:25;;;;;;;1.27;0.65;;;16.80;99.90;;;;;;4969986;28;20027;-70
2024/04/06 03:17:52;;;;;;;3.53;0.60;;;16.80;99.90;;;;;;4962625;28;20058;-70
2024/04/06 03:20:17;;;;;;;3.88;1.23;;;16.80;99.90;;;;;;4975621;28;20113;-70
2024/04/06 03:23:05;;;;;;;3.30;0.93;;;16.80;99.90;;;;;;4971804;28;20606;-70
2024/04/06 03:25:33;;;;;;;1.90;0.80;;;16.70;99.90;;;;;;4969633;28;20051;-70
2024/04/06 03:27:59;;;;;;;1.73;1.05;;;16.50;99.90;;;;;;4971178;28;20082;-70
2024/04/06 03:30:25;;;;;;;6.28;1.27;;;16.40;99.90;;;;;;4952247;28;20484;-70
2024/04/06 03:32:52;;;;;;;1.65;0.85;;;16.20;99.90;;;;;;4953901;28;20420;-70
2024/04/06 03:35:19;;;;;;;3.15;1.45;;;16.10;99.90;;;;;;4971061;28;20030;-71
2024/04/06 03:37:49;;;;;;;3.05;0.98;;;16.00;99.90;;;;;;4971057;28;20038;-70
2024/04/06 03:40:17;;;;;;;1.25;0.60;;;15.90;99.90;;;;;;4955284;28;20371;-69
2024/04/06 03:42:56;;;;;;;2.03;1.02;;;15.80;99.90;;;;;;4947814;28;20046;-69
2024/04/06 03:45:22;;;;;;;1.10;0.80;;;15.80;99.90;;;;;;4969660;28;20114;-69
2024/04/06 03:47:47;;;;;;;3.35;0.73;;;15.70;99.90;;;;;;4970904;28;20035;-70
2024/04/06 03:50:15;;;;;;;2.58;1.20;;;15.70;99.90;;;;;;4954596;28;20037;-70
2024/04/06 03:52:41;;;;;;;1.60;0.77;;;15.70;99.90;;;;;;4962914;28;20089;-70
2024/04/06 03:55:06;;;;;;;2.20;0.70;;;15.60;99.90;;;;;;4967240;28;20043;-70
2024/04/06 03:57:32;;;;;;;2.35;0.90;;;15.60;99.90;;;;;;4954301;28;20027;-70
2024/04/06 03:59:59;;;;;;;2.47;0.73;;;15.60;99.90;;;;;;4969517;28;20047;-70
2024/04/06 04:02:25;;;;;;;1.52;0.70;;;15.50;99.90;;;;;;4970486;28;20399;-70
2024/04/06 04:04:51;;;;;;;1.92;1.25;;;15.40;99.90;;;;;;4971025;28;20035;-71
2024/04/06 04:07:17;;;;;;;2.30;0.75;;;15.30;99.90;;;;;;4972269;28;20030;-70
2024/04/06 04:09:42;;;;;;;2.40;1.15;;;15.20;99.90;;;;;;4970605;28;20034;-70
2024/04/06 04:12:08;;;;;;;6.47;1.15;;;15.20;99.90;;;;;;4973490;28;20033;-70
2024/04/06 04:14:34;;;;;;;1.05;0.75;;;15.10;99.90;;;;;;4967546;28;20027;-70
2024/04/06 04:16:59;;;;;;;1.08;0.75;;;14.90;99.90;;;;;;4971150;28;20034;-70
2024/04/06 04:19:25;;;;;;;1.95;0.88;;;14.90;99.90;;;;;;4965721;28;20058;-70
2024/04/06 04:21:51;;;;;;;3.90;1.33;;;14.80;99.90;;;;;;4970921;28;20114;-70
2024/04/06 04:24:18;;;;;;;5.18;1.63;;;14.70;99.90;;;;;;4967209;28;20058;-70
2024/04/06 04:26:45;;;;;;;1.52;0.98;;;14.60;99.90;;;;;;4968997;28;20058;-70
2024/04/06 04:29:10;;;;;;;1.95;1.10;;;14.60;99.90;;;;;;4953620;28;20085;-70
2024/04/06 04:31:36;;;;;;;1.45;0.80;;;14.50;99.90;;;;;;4970639;28;20387;-71
2024/04/06 04:34:02;;;;;;;2.25;1.15;;;14.50;99.90;;;;;;4968008;28;20518;-70
2024/04/06 04:36:28;;;;;;;2.22;1.15;;;14.40;99.90;;;;;;4969690;28;20057;-70
2024/04/06 04:38:53;;;;;;;1.67;0.73;;;14.50;99.90;;;;;;4971234;28;20035;-70
2024/04/06 04:41:19;;;;;;;4.53;1.00;;;14.40;99.90;;;;;;4954204;28;20039;-70
2024/04/06 04:43:45;;;;;;;2.17;1.20;;;14.40;99.90;;;;;;4966398;28;20058;-70
2024/04/06 04:46:11;;;;;;;3.20;1.30;;;14.40;99.90;;;;;;4980597;28;20062;-70
2024/04/06 04:48:52;;;;;;;11.05;1.17;;;14.50;99.90;;;;;;4974932;28;20050;-70
2024/04/06 04:51:21;;;;;;;2.97;1.00;;;14.50;99.90;;;;;;4971449;28;20026;-70
2024/04/06 04:53:47;;;;;;;1.88;1.25;;;14.40;99.90;;;;;;4970167;28;20484;-70
2024/04/06 04:56:13;;;;;;;5.07;1.40;;;14.40;99.90;;;;;;4957341;28;20039;-70
2024/04/06 04:58:39;;;;;;;3.50;1.15;;;14.30;99.90;;;;;;4974684;28;20064;-70
2024/04/06 05:01:04;;;;;;;3.58;1.20;;;14.30;99.90;;;;;;4973237;28;20062;-70
2024/04/06 05:03:30;;;;;;;2.28;1.00;;;14.20;99.90;;;;;;4974361;28;20074;-70
2024/04/06 05:05:56;;;;;;;7.57;1.35;;;14.20;99.90;;;;;;4972554;28;20035;-70
2024/04/06 05:08:23;;;;;;;2.97;1.33;;;14.10;99.90;;;;;;4957873;28;20110;-70
2024/04/06 05:10:50;;;;;;;5.53;1.30;;;14.10;99.90;;;;;;4954313;28;20031;-70
2024/04/06 05:13:15;;;;;;;3.03;1.33;;;14.00;99.90;;;;;;4957504;28;20517;-70
2024/04/06 05:15:52;;;;;;;3.75;1.38;;;13.90;99.90;;;;;;4956550;28;20038;-70
2024/04/06 05:18:19;;;;;;;4.72;1.33;;;13.80;99.90;;;;;;4957816;28;20082;-70
2024/04/06 05:20:52;;;;;;;2.40;1.00;;;13.90;99.90;;;;;;4956935;28;20069;-70
2024/04/06 05:23:19;;;;;;;2.25;1.20;;;13.80;99.90;;;;;;4973165;28;20105;-70
2024/04/06 05:25:51;;;;;;;1.55;0.77;;;13.90;99.90;;;;;;4956491;28;20495;-70
2024/04/06 05:28:18;;;;;;;2.22;1.08;;;13.80;99.90;;;;;;4973188;28;20089;-70
2024/04/06 05:30:48;;;;;;;3.40;1.13;;;13.80;99.90;;;;;;4972494;28;20034;-70
2024/04/06 05:33:17;;;;;;;1.73;0.80;;;13.80;99.90;;;;;;4972545;28;20025;-70
2024/04/06 05:35:44;;;;;;;2.83;1.42;;;13.80;99.90;;;;;;4956508;28;20340;-69
2024/04/06 05:38:10;;;;;;;3.38;1.30;;;13.90;99.90;;;;;;4972573;28;20037;-70
2024/04/06 05:40:40;;;;;;;3.45;1.63;;;13.90;99.90;;;;;;4956999;28;20020;-69
2024/04/06 05:43:09;;;;;;;4.95;1.55;;;13.90;99.90;;;;;;4961521;28;20019;-70
2024/04/06 05:45:40;;;;;;;2.25;0.88;;;14.00;99.90;;;;;;4971837;28;20030;-70
2024/04/06 05:48:07;;;;;;;2.47;1.10;;;14.00;99.90;;;;;;4965686;28;20058;-69
2024/04/06 05:50:38;;;;;;;3.80;1.50;;;14.00;99.90;;;;;;4956572;28;20034;-69
2024/04/06 05:53:04;;;;;;;3.78;1.27;;;14.00;99.90;;;;;;4972050;28;20050;-69
2024/04/06 05:55:31;;;;;;;3.78;1.20;;;14.10;99.90;;;;;;4954819;28;20034;-69
2024/04/06 05:57:57;;;;;;;1.95;1.15;;;14.10;99.90;;;;;;4955695;28;20038;-70
2024/04/06 06:00:26;;;;;;;1.83;0.85;;;14.10;99.90;;;;;;4969446;28;20486;-70
2024/04/06 06:02:54;;;;;;;2.92;1.05;;;14.20;99.90;;;;;;4964028;28;20039;-70
2024/04/06 06:05:20;;;;;;;2.72;1.05;;;14.20;99.90;;;;;;4972555;28;20030;-70
2024/04/06 06:07:47;;;;;;;2.25;0.80;;;14.20;99.90;;;;;;4973019;28;20046;-70
2024/04/06 06:10:13;;;;;;;4.20;0.93;;;14.20;99.90;;;;;;4956654;28;20023;-70
2024/04/06 06:12:39;;;;;;;1.35;0.82;;;14.30;99.90;;;;;;4972933;28;20042;-70
2024/04/06 06:15:05;;;;;;;2.53;1.40;;;14.40;99.90;;;;;;4970224;28;20031;-70
2024/04/06 06:17:31;;;;;;;2.65;1.15;;;14.40;99.90;;;;;;4972661;28;20043;-70
2024/04/06 06:19:57;;;;;;;4.32;2.08;;;14.50;99.90;;;;;;4971883;28;20031;-70
2024/04/06 06:22:22;;;;;;;1.75;1.00;;;14.50;99.90;;;;;;4956102;28;20027;-70
2024/04/06 06:24:49;;;;;;;1.73;1.00;;;14.60;99.90;;;;;;4971687;28;20043;-70
2024/04/06 06:27:16;;;;;;;3.22;1.48;;;14.60;99.90;;;;;;4955588;28;20065;-70
2024/04/06 06:29:42;;;;;;;2.55;1.10;;;14.80;99.90;;;;;;4967017;28;20498;-69
2024/04/06 06:32:07;;;;;;;1.52;1.05;;;14.90;99.90;;;;;;4973666;28;20027;-70
2024/04/06 06:34:33;;;;;;;1.10;0.73;;;14.90;99.90;;;;;;4968473;28;20097;-70
2024/04/06 06:37:00;;;;;;;2.53;0.90;;;15.00;99.90;;;;;;4973160;28;20495;-69
2024/04/06 06:39:25;;;;;;;1.45;0.93;;;15.00;99.90;;;;;;4954141;28;20045;-70
2024/04/06 06:41:54;;;;;;;1.38;0.80;;;15.10;99.90;;;;;;4970674;28;20027;-70
2024/04/06 06:44:20;;;;;;;5.00;1.80;;;15.20;99.90;;;;;;4952452;28;20059;-70
2024/04/06 06:46:46;;;;;;;2.50;1.00;;;15.40;99.90;;;;;;4972458;28;20093;-69
2024/04/06 06:49:12;;;;;;;4.32;1.20;;;15.50;99.90;;;;;;4967822;28;20034;-69
2024/04/06 06:51:38;;;;;;;3.92;1.38;;;15.70;99.90;;;;;;4972217;28;20031;-69
2024/04/06 06:54:05;;;;;;;4.30;1.05;;;15.80;99.90;;;;;;4971742;28;20023;-69
2024/04/06 06:56:31;;;;;;;3.00;1.20;;;15.90;99.90;;;;;;4970988;28;20038;-69
2024/04/06 06:58:57;;;;;;;3.60;1.25;;;16.00;99.90;;;;;;4971859;28;20031;-69
2024/04/06 07:01:23;;;;;;;6.70;1.23;;;16.00;99.90;;;;;;4971411;28;20117;-70
2024/04/06 07:03:49;;;;;;;1.27;0.77;;;16.00;99.90;;;;;;4971842;28;20126;-70
2024/04/06 07:06:15;;;;;;;1.65;0.80;;;16.10;99.90;;;;;;4970731;28;20551;-69
2024/04/06 07:08:45;;;;;;;2.17;0.75;;;16.10;99.90;;;;;;4972910;28;20031;-70
2024/04/06 07:11:11;;;;;;;3.03;1.10;;;16.20;99.90;;;;;;4970879;28;20026;-70
2024/04/06 07:13:38;;;;;;;5.68;0.90;;;16.30;99.90;;;;;;4972950;28;20026;-70
2024/04/06 07:16:05;;;;;;;2.33;1.10;;;16.30;99.90;;;;;;4954047;28;20416;-70
2024/04/06 07:18:31;;;;;;;2.95;0.88;;;16.40;99.90;;;;;;4971637;28;20514;-70
2024/04/06 07:20:57;;;;;;;2.65;0.85;;;16.50;99.90;;;;;;4954543;28;20043;-70
2024/04/06 07:23:23;;;;;;;2.13;1.20;;;16.50;99.90;;;;;;4972941;28;20082;-70
2024/04/06 07:25:49;;;;;;;2.63;1.00;;;16.50;99.90;;;;;;4968763;28;20085;-70
2024/04/06 07:28:16;;;;;;;1.92;0.95;;;16.60;99.90;;;;;;4973045;28;20034;-70
2024/04/06 07:30:43;;;;;;;2.58;0.93;;;16.60;99.90;;;;;;4968928;28;20039;-70
2024/04/06 07:33:09;;;;;;;2.28;1.00;;;16.70;99.90;;;;;;4972391;28;20051;-70
2024/04/06 07:35:35;;;;;;;3.58;1.15;;;16.80;99.90;;;;;;4970297;28;20019;-70
2024/04/06 07:38:01;;;;;;;1.63;0.60;;;16.80;99.90;;;;;;4972223;28;20046;-70
2024/04/06 07:40:27;;;;;;;3.90;1.25;;;16.90;99.90;;;;;;4954464;28;20109;-70
2024/04/06 07:42:53;;;;;;;4.45;1.10;;;16.90;99.90;;;;;;4955133;28;20122;-70
2024/04/06 07:45:18;;;;;;;5.88;1.05;;;17.00;99.90;;;;;;4970636;28;20175;-70
2024/04/06 07:47:44;;;;;;;4.38;0.90;;;17.00;99.90;;;;;;4972412;28;20043;-70
2024/04/06 07:50:10;;;;;;;1.85;0.80;;;17.00;99.90;;;;;;4954470;28;20057;-70
2024/04/06 07:52:35;;;;;;;8.82;1.23;;;17.10;99.90;;;;;;4955300;28;20037;-70
2024/04/06 07:55:01;;;;;;;2.97;1.25;;;17.20;99.90;;;;;;4969880;28;20034;-70
2024/04/06 07:57:29;;;;;;;5.53;0.75;;;17.40;99.90;;;;;;4971922;28;20395;-70
2024/04/06 07:59:55;;;;;;;6.18;1.48;;;17.40;99.90;;;;;;4970119;28;20043;-70
2024/04/06 08:02:22;;;;;;;1.63;0.70;;;17.50;99.90;;;;;;4972380;28;20030;-70
2024/04/06 08:04:50;;;;;;;3.97;1.10;;;17.70;99.90;;;;;;4969698;28;20035;-70
2024/04/06 08:07:16;;;;;;;1.23;0.60;;;17.90;99.90;;;;;;4971670;28;20098;-70
2024/04/06 08:09:42;;;;;;;2.22;0.50;;;18.00;99.90;;;;;;4969796;28;20106;-71
2024/04/06 08:12:08;;;;;;;1.45;0.85;;;18.00;99.90;;;;;;4955096;28;20411;-70
2024/04/06 08:14:33;;;;;;;2.67;1.15;;;18.10;99.90;;;;;;4953170;28;20034;-71
2024/04/06 08:16:59;;;;;;;2.72;1.02;;;18.20;99.90;;;;;;4971351;28;20031;-71
2024/04/06 08:19:25;;;;;;;1.33;0.60;;;18.20;99.90;;;;;;4970679;28;20113;-71
2024/04/06 08:21:50;;;;;;;5.07;0.82;;;18.40;99.90;;;;;;4975683;28;20035;-69
2024/04/06 08:24:17;;;;;;;2.05;0.70;;;18.50;99.90;;;;;;4957459;28;20542;-70
2024/04/06 08:26:45;;;;;;;3.33;1.25;;;18.50;99.90;;;;;;4957440;28;20174;-70
2024/04/06 08:29:10;;;;;;;4.45;0.93;;;18.60;99.90;;;;;;4958113;28;20145;-70
2024/04/06 08:31:36;;;;;;;1.67;0.80;;;18.60;99.90;;;;;;4975215;28;20114;-70
2024/04/06 08:34:02;;;;;;;2.58;0.82;;;18.80;99.90;;;;;;4975536;28;20182;-70
2024/04/06 08:36:27;;;;;;;2.42;0.88;;;18.90;99.90;;;;;;4973977;28;20030;-70
2024/04/06 08:38:54;;;;;;;1.55;0.70;;;18.90;99.90;;;;;;4975782;28;20037;-70
2024/04/06 08:41:24;;;;;;;3.60;1.02;;;19.00;99.90;;;;;;4957950;28;20038;-70
2024/04/06 08:43:55;;;;;;;2.72;0.60;;;19.10;99.90;;;;;;4958339;28;20038;-70
2024/04/06 08:46:22;;;;;;;1.27;0.70;;;19.10;99.90;;;;;;4971077;28;20517;-70
2024/04/06 08:48:50;;;;;;;6.45;1.00;;;19.20;99.90;;;;;;4975791;28;20379;-70
2024/04/06 08:51:19;;;;;;;2.38;0.63;;;19.30;99.90;;;;;;4972804;28;20030;-70
2024/04/06 08:53:44;;;;;;;1.55;0.80;;;19.40;99.90;;;;;;4974282;28;20046;-70
2024/04/06 08:56:15;;;;;;;7.50;1.20;;;19.50;99.90;;;;;;4957351;28;20030;-69
2024/04/06 08:58:42;;;;;;;2.17;1.40;;;19.60;99.90;;;;;;4955183;28;20042;-71
2024/04/06 09:01:10;;;;;;;27.75;3.15;;;19.80;99.50;;;;;;4968680;28;20449;-70
2024/04/06 09:03:37;;;;;;;24.50;3.38;;;19.80;98.70;;;;;;4958974;28;20440;-70
2024/04/06 09:06:03;;;;;;;12.40;2.25;;;19.90;98.80;;;;;;4957409;28;20038;-70
2024/04/06 09:08:32;;;;;;;0.93;0.45;;;20.00;98.80;;;;;;4975680;28;20022;-71
2024/04/06 09:10:58;;;;;;;5.45;1.00;;;20.00;98.20;;;;;;4955958;28;20102;-70
2024/04/06 09:13:28;;;;;;;2.15;0.50;;;20.10;98.10;;;;;;4975147;28;20034;-70
2024/04/06 09:15:54;;;;;;;2.90;0.73;;;20.20;97.70;;;;;;4973082;28;20060;-71
2024/04/06 09:18:19;;;;;;;1.33;0.80;;;20.30;97.60;;;;;;4957828;28;20070;-71
2024/04/06 09:20:52;;;;;;;2.83;0.88;;;20.40;97.40;;;;;;4957031;28;20092;-70
2024/04/06 09:23:19;;;;;;;20.50;3.70;;;20.40;97.00;;;;;;4957708;28;20130;-70
2024/04/06 09:25:45;;;;;;;0.82;0.47;;;20.50;97.10;;;;;;4956557;28;20762;-71
2024/04/06 09:28:12;;;;;;;4.53;0.70;;;20.60;97.40;;;;;;4957419;28;20043;-70
2024/04/06 09:30:44;;;;;;;1.85;0.70;;;20.70;97.70;;;;;;4972512;28;20018;-70
2024/04/06 09:33:11;;;;;;;2.60;0.73;;;20.90;97.10;;;;;;4973743;28;20390;-70
2024/04/06 09:35:40;;;;;;;6.10;1.25;;;21.10;97.30;;;;;;4953019;28;20023;-70
2024/04/06 09:38:13;;;;;;;3.65;1.30;;;21.30;96.80;;;;;;4974660;28;20031;-70
2024/04/06 09:40:46;;;;;;;1.08;0.50;;;21.30;96.00;;;;;;4957163;28;20030;-71
2024/04/06 09:43:13;;;;;;;3.15;0.65;;;21.40;95.80;;;;;;4966315;28;20476;-70
2024/04/06 09:45:40;;;;;;;1.00;0.60;;;21.50;95.50;;;;;;4955076;28;20046;-70
2024/04/06 09:48:10;;;;;;;0.98;0.60;;;21.70;96.10;;;;;;4974478;28;20056;-70
2024/04/06 09:50:40;;;;;;;1.65;0.60;;;21.80;95.50;;;;;;4970884;28;20082;-70
2024/04/06 09:53:07;;;;;;;1.17;0.80;;;22.00;95.20;;;;;;4974259;28;20023;-70
2024/04/06 09:55:37;;;;;;;1.48;0.65;;;22.20;93.90;;;;;;4971900;28;20426;-70
2024/04/06 09:58:04;;;;;;;3.30;1.07;;;22.20;94.10;;;;;;4957010;28;20050;-70
2024/04/06 10:00:33;;;;;;;2.33;0.60;;;22.30;92.70;;;;;;4956299;28;20290;-70
2024/04/06 10:03:00;;;;;;;1.58;0.60;;;22.40;92.90;;;;;;4972905;28;20026;-71
2024/04/06 10:05:45;;;;;;;5.53;0.90;;;22.50;93.00;;;;;;4956473;28;20069;-70
2024/04/06 10:08:13;;;;;;;1.10;0.60;;;22.50;93.10;;;;;;4956821;28;20399;-70
2024/04/06 10:10:48;;;;;;;1.95;1.00;;;22.60;92.00;;;;;;4956241;28;20432;-70
2024/04/06 10:13:20;;;;;;;2.65;0.60;;;22.60;92.70;;;;;;4965608;28;20019;-71
2024/04/06 10:15:46;;;;;;;1.95;0.88;;;22.80;92.80;;;;;;4955710;28;20022;-71
2024/04/06 10:18:13;;;;;;;2.03;0.80;;;23.00;91.50;;;;;;4956588;28;20030;-71
2024/04/06 10:20:43;;;;;;;0.70;0.57;;;23.10;91.10;;;;;;4971796;28;20065;-71
2024/04/06 10:23:13;;;;;;;0.52;0.30;;;23.30;91.40;;;;;;4956198;28;20451;-71
2024/04/06 10:25:40;;;;;;;1.40;0.50;;;23.60;91.50;;;;;;4955435;28;20081;-70
2024/04/06 10:28:10;;;;;;;2.90;1.25;;;23.70;89.80;;;;;;4972588;28;20085;-70
2024/04/06 10:30:39;;;;;;;2.85;0.63;;;23.80;90.70;;;;;;4956453;28;20062;-70
2024/04/06 10:33:06;;;;;;;1.83;0.77;;;23.90;90.50;;;;;;4972386;28;20085;-71
2024/04/06 10:35:33;;;;;;;3.55;0.50;;;24.10;90.40;;;;;;4955590;28;20019;-70
2024/04/06 10:37:59;;;;;;;1.75;0.43;;;24.30;87.40;;;;;;4971856;28;20033;-71
2024/04/06 10:40:37;;;;;;;1.00;0.50;;;24.10;86.40;;;;;;4970145;28;20120;-70
2024/04/06 10:43:03;;;;;;;0.75;0.50;;;24.00;86.60;;;;;;4972388;28;20035;-71
2024/04/06 10:45:29;;;;;;;1.20;0.70;;;24.10;87.10;;;;;;4970258;28;20039;-71
2024/04/06 10:47:55;;;;;;;1.40;0.40;;;23.80;85.20;;;;;;4977261;28;20054;-69
2024/04/06 10:50:20;;;;;;;1.40;0.47;;;23.80;83.90;;;;;;4971265;28;20030;-70
2024/04/06 10:52:47;;;;;;;0.60;0.50;;;23.90;83.80;;;;;;4973371;28;20062;-70
2024/04/06 10:55:15;;;;;;;3.05;1.25;;;24.00;86.10;;;;;;4970919;28;20029;-70
2024/04/06 10:57:45;;;;;;;1.55;0.68;;;24.20;86.90;;;;;;4972877;28;20341;-70
2024/04/06 11:00:14;;;;;;;0.30;0.20;;;24.30;84.70;;;;;;4947525;28;20050;-70
2024/04/06 11:02:42;;;;;;;10.02;1.65;;;24.20;85.40;;;;;;4972071;28;20483;-71
2024/04/06 11:05:09;;;;;;;10.70;1.02;;;24.40;83.60;;;;;;4955031;28;20039;-71
2024/04/06 11:07:35;;;;;;;14.00;3.38;;;24.40;84.60;;;;;;4972557;28;20093;-71
2024/04/06 11:10:03;;;;;;;2.25;0.55;;;24.90;85.40;;;;;;4954417;28;20031;-71
2024/04/06 11:12:30;;;;;;;6.57;1.17;;;25.10;82.70;;;;;;4956072;28;20085;-71
2024/04/06 11:15:02;;;;;;;18.42;1.48;;;25.10;82.20;;;;;;4954340;28;20551;-70
2024/04/06 11:17:28;;;;;;;8.32;1.02;;;25.10;81.90;;;;;;4955607;28;20034;-71
2024/04/06 11:20:00;;;;;;;16.85;2.78;;;25.30;79.70;;;;;;4970144;28;20058;-71
2024/04/06 11:22:25;;;;;;;16.70;2.42;;;25.50;77.10;;;;;;4955452;28;20042;-70
2024/04/06 11:24:52;;;;;;;8.65;0.95;;;25.40;77.70;;;;;;4954621;28;20038;-71
2024/04/06 11:27:22;;;;;;;4.13;1.38;;;25.30;78.20;;;;;;4972340;28;20035;-70
2024/04/06 11:29:49;;;;;;;5.53;1.70;;;25.20;76.50;;;;;;4953907;28;20361;-71
2024/04/06 11:32:22;;;;;;;4.13;0.60;;;25.30;76.50;;;;;;4971444;28;20027;-71
2024/04/06 11:34:52;;;;;;;3.50;0.50;;;25.20;75.40;;;;;;4968773;28;20041;-71
2024/04/06 11:37:21;;;;;;;0.80;0.40;;;25.30;75.70;;;;;;4955253;28;20117;-71
2024/04/06 11:39:48;;;;;;;2.67;0.65;;;25.70;74.60;;;;;;4969187;28;20093;-71
2024/04/06 11:42:15;;;;;;;1.27;0.52;;;26.00;74.10;;;;;;4952780;28;20062;-71
2024/04/06 11:44:41;;;;;;;6.38;0.82;;;26.00;74.00;;;;;;4969443;28;20031;-71
2024/04/06 11:47:08;;;;;;;0.90;0.40;;;26.30;73.10;;;;;;4971600;28;20031;-71
2024/04/06 11:49:34;;;;;;;3.70;0.60;;;26.30;71.40;;;;;;4953713;28;20411;-71
2024/04/06 11:52:00;;;;;;;1.42;0.35;;;26.50;74.40;;;;;;4970756;28;20102;-71
2024/04/06 11:54:26;;;;;;;1.48;0.68;;;26.50;70.10;;;;;;4953520;28;20038;-71
2024/04/06 11:56:53;;;;;;;1.30;0.60;;;26.30;68.70;;;;;;4954212;28;20122;-71
2024/04/06 11:59:18;;;;;;;1.13;0.30;;;26.00;69.00;;;;;;4953977;28;20057;-70
2024/04/06 12:01:44;;;;;;;0.75;0.20;;;26.10;69.80;;;;;;4969715;28;20731;-71
2024/04/06 12:04:10;;;;;;;1.83;0.57;;;25.70;68.20;;;;;;4954504;28;20113;-71
2024/04/06 12:06:36;;;;;;;0.40;0.30;;;25.50;68.10;;;;;;4968453;28;20054;-71
2024/04/06 12:09:06;;;;;;;1.00;0.50;;;25.60;69.10;;;;;;4955088;28;20483;-71
2024/04/06 12:11:33;;;;;;;1.52;0.77;;;25.80;68.30;;;;;;4954232;28;20031;-71
2024/04/06 12:14:00;;;;;;;3.35;0.45;;;26.00;68.70;;;;;;4971934;28;20038;-71
2024/04/06 12:16:30;;;;;;;1.48;0.52;;;26.10;68.50;;;;;;4954051;28;20058;-71
2024/04/06 12:18:56;;;;;;;0.57;0.30;;;26.60;68.80;;;;;;4954860;28;20038;-71
2024/04/06 12:21:23;;;;;;;1.58;0.82;;;26.80;69.70;;;;;;4967806;28;20035;-71
2024/04/06 12:23:49;;;;;;;0.45;0.20;;;27.50;66.60;;;;;;4972099;28;20030;-71
2024/04/06 12:26:16;;;;;;;3.10;0.32;;;28.00;64.60;;;;;;4953363;28;20093;-71
2024/04/06 12:28:42;;;;;;;0.90;0.40;;;28.10;64.20;;;;;;4970710;28;20023;-71
2024/04/06 12:31:07;;;;;;;0.65;0.28;;;28.20;64.10;;;;;;4968174;28;20030;-69
2024/04/06 12:33:33;;;;;;;0.45;0.30;;;28.10;62.90;;;;;;4954704;28;20089;-70
2024/04/06 12:35:59;;;;;;;0.40;0.38;;;28.20;62.80;;;;;;4953227;28;20035;-70
2024/04/06 12:38:25;;;;;;;3.55;0.50;;;29.20;60.90;;;;;;4972091;28;20443;-71
2024/04/06 12:40:51;;;;;;;3.78;0.93;;;29.30;58.80;;;;;;4968630;28;20050;-71
2024/04/06 12:43:17;;;;;;;1.40;0.40;;;29.10;60.10;;;;;;4972069;28;20027;-71
2024/04/06 12:45:43;;;;;;;3.90;0.73;;;29.70;58.90;;;;;;4969895;28;20114;-71